createdAt,value
2024-03-02T00:00:14.173Z,42.50
2024-03-02T00:02:48.048Z,42.60
2024-03-02T00:05:16.421Z,42.65
2024-03-02T00:07:43.856Z,42.63
2024-03-02T00:10:12.579Z,42.70
2024-03-02T00:12:40.351Z,42.74
2024-03-02T00:15:31.086Z,42.62
2024-03-02T00:17:59.953Z,42.31
2024-03-02T00:20:29.535Z,42.52
2024-03-02T00:23:06.913Z,42.63
2024-03-02T00:25:42.411Z,42.49
2024-03-02T00:28:17.001Z,42.35
2024-03-02T00:30:46.207Z,42.40
2024-03-02T00:33:12.827Z,42.77
2024-03-02T00:35:39.282Z,42.55
2024-03-02T00:38:07.227Z,42.72
2024-03-02T00:40:33.897Z,42.69
2024-03-02T00:43:00.496Z,42.35
2024-03-02T00:45:27.209Z,42.31
2024-03-02T00:47:54.321Z,42.42
2024-03-02T00:50:26.953Z,42.36
2024-03-02T00:52:57.375Z,42.41
2024-03-02T00:55:24.033Z,42.55
2024-03-02T00:57:50.490Z,42.48
2024-03-02T01:00:18.828Z,42.49
2024-03-02T01:02:47.449Z,42.68
2024-03-02T01:05:13.928Z,42.36
2024-03-02T01:07:40.393Z,42.61
2024-03-02T01:10:07.169Z,42.54
2024-03-02T01:12:33.751Z,42.61
2024-03-02T01:15:00.202Z,42.34
2024-03-02T01:17:26.604Z,42.29
2024-03-02T01:19:53.030Z,42.16
2024-03-02T01:22:25.967Z,42.42
2024-03-02T01:24:52.788Z,42.39
2024-03-02T01:27:19.896Z,42.35
2024-03-02T01:29:46.348Z,42.61
2024-03-02T01:32:12.802Z,42.44
2024-03-02T01:34:39.205Z,42.34
2024-03-02T01:37:05.684Z,42.58
2024-03-02T01:39:32.142Z,42.46
2024-03-02T01:41:58.555Z,42.67
2024-03-02T01:44:24.971Z,42.48
2024-03-02T01:46:51.921Z,42.77
2024-03-02T01:49:18.273Z,42.58
2024-03-02T01:51:44.711Z,42.53
2024-03-02T01:54:11.129Z,42.70
2024-03-02T01:56:37.530Z,42.39
2024-03-02T01:59:04.436Z,42.76
2024-03-02T02:01:32.153Z,42.80
2024-03-02T02:03:58.796Z,42.44
2024-03-02T02:06:25.650Z,42.83
2024-03-02T02:08:52.095Z,42.51
2024-03-02T02:11:18.877Z,42.44
2024-03-02T02:13:45.470Z,42.68
2024-03-02T02:16:12.096Z,42.82
2024-03-02T02:18:38.845Z,42.80
2024-03-02T02:21:05.317Z,42.65
2024-03-02T02:23:31.711Z,42.47
2024-03-02T02:25:58.140Z,42.90
2024-03-02T02:28:24.639Z,42.64
2024-03-02T02:30:51.131Z,42.92
2024-03-02T02:33:17.654Z,42.84
2024-03-02T02:35:44.107Z,43.03
2024-03-02T02:38:10.613Z,42.80
2024-03-02T02:40:37.001Z,42.79
2024-03-02T02:43:03.790Z,43.01
2024-03-02T02:45:30.265Z,42.85
2024-03-02T02:47:56.794Z,42.80
2024-03-02T02:50:23.276Z,42.79
2024-03-02T02:52:49.769Z,42.91
2024-03-02T02:55:17.181Z,42.58
2024-03-02T02:57:45.076Z,43.18
2024-03-02T03:00:16.881Z,43.05
2024-03-02T03:02:46.456Z,42.99
2024-03-02T03:05:15.476Z,42.70
2024-03-02T03:07:42.891Z,42.86
2024-03-02T03:10:09.804Z,42.98
2024-03-02T03:12:36.774Z,42.71
2024-03-02T03:15:05.532Z,43.03
2024-03-02T03:17:32.147Z,42.96
2024-03-02T03:19:58.506Z,43.00
2024-03-02T03:22:24.996Z,42.72
2024-03-02T03:24:51.604Z,42.85
2024-03-02T03:27:18.121Z,43.22
2024-03-02T03:29:44.605Z,43.01
2024-03-02T03:32:11.067Z,43.23
2024-03-02T03:34:37.600Z,43.14
2024-03-02T03:37:04.292Z,42.85
2024-03-02T03:39:30.733Z,43.11
2024-03-02T03:41:57.222Z,42.86
2024-03-02T03:44:23.816Z,43.21
2024-03-02T03:46:50.286Z,43.32
2024-03-02T03:49:16.715Z,42.88
2024-03-02T03:51:43.759Z,43.10
2024-03-02T03:54:12.281Z,43.08
2024-03-02T03:56:38.876Z,43.30
2024-03-02T03:59:05.803Z,43.20
2024-03-02T04:01:35.411Z,43.02
2024-03-02T04:04:04.554Z,43.25
2024-03-02T04:06:31.159Z,43.08
2024-03-02T04:08:57.673Z,43.22
2024-03-02T04:11:24.832Z,43.17
2024-03-02T04:13:51.240Z,42.95
2024-03-02T04:16:17.673Z,43.07
2024-03-02T04:18:44.150Z,43.36
2024-03-02T04:21:10.600Z,43.18
2024-03-02T04:23:36.981Z,43.09
2024-03-02T04:26:03.366Z,43.02
2024-03-02T04:28:29.749Z,42.90
2024-03-02T04:30:56.324Z,43.07
2024-03-02T04:33:22.862Z,43.11
2024-03-02T04:35:49.367Z,43.29
2024-03-02T04:38:15.828Z,42.98
2024-03-02T04:40:42.382Z,43.20
2024-03-02T04:43:10.536Z,43.18
2024-03-02T04:45:39.343Z,43.02
2024-03-02T04:48:06.219Z,42.90
2024-03-02T04:50:32.623Z,43.02
2024-03-02T04:52:58.985Z,43.15
2024-03-02T04:55:40.275Z,43.02
2024-03-02T04:58:07.546Z,43.09
2024-03-02T05:00:34.617Z,43.31
2024-03-02T05:03:01.186Z,43.49
2024-03-02T05:05:27.746Z,43.44
2024-03-02T05:07:54.208Z,43.45
2024-03-02T05:10:20.764Z,43.49
2024-03-02T05:12:47.200Z,43.54
2024-03-02T05:15:15.362Z,43.33
2024-03-02T05:17:46.380Z,43.28
2024-03-02T05:20:13.164Z,42.99
2024-03-02T05:22:40.766Z,42.96
2024-03-02T05:25:08.256Z,43.27
2024-03-02T05:27:34.871Z,43.06
2024-03-02T05:30:01.913Z,42.94
2024-03-02T05:32:28.340Z,42.83
2024-03-02T05:34:56.077Z,43.03
2024-03-02T05:37:22.649Z,42.82
2024-03-02T05:39:49.140Z,42.64
2024-03-02T05:42:17.784Z,42.78
2024-03-02T05:44:44.305Z,42.81
2024-03-02T05:47:10.777Z,43.00
2024-03-02T05:49:37.272Z,42.78
2024-03-02T05:52:04.271Z,42.82
2024-03-02T05:54:30.824Z,43.07
2024-03-02T05:56:57.259Z,42.93
2024-03-02T05:59:23.635Z,42.60
2024-03-02T06:01:53.156Z,42.82
2024-03-02T06:04:19.883Z,42.58
2024-03-02T06:06:46.438Z,42.78
2024-03-02T06:09:13.769Z,42.58
2024-03-02T06:11:41.894Z,42.52
2024-03-02T06:14:09.895Z,42.94
2024-03-02T06:16:36.490Z,42.51
2024-03-02T06:19:03.273Z,42.85
2024-03-02T06:21:30.872Z,42.55
2024-03-02T06:23:57.847Z,42.41
2024-03-02T06:26:26.104Z,42.57
2024-03-02T06:28:53.180Z,42.69
2024-03-02T06:31:19.802Z,42.51
2024-03-02T06:33:46.312Z,42.57
2024-03-02T06:36:13.139Z,42.76
2024-03-02T06:38:43.530Z,42.45
2024-03-02T06:41:10.352Z,42.41
2024-03-02T06:43:36.887Z,42.70
2024-03-02T06:46:03.696Z,42.49
2024-03-02T06:50:58.483Z,42.34
2024-03-02T06:53:24.908Z,42.58
2024-03-02T06:55:51.454Z,42.66
2024-03-02T06:58:17.902Z,42.58
2024-03-02T07:00:45.164Z,42.31
2024-03-02T07:03:11.677Z,42.05
2024-03-02T07:05:38.114Z,42.38
2024-03-02T07:08:06.272Z,42.49
2024-03-02T07:10:32.772Z,42.43
2024-03-02T07:12:59.223Z,42.21
2024-03-02T07:15:28.438Z,42.37
2024-03-02T07:17:54.941Z,42.35
2024-03-02T07:20:21.671Z,42.37
2024-03-02T07:22:48.193Z,42.31
2024-03-02T07:27:45.023Z,42.49
2024-03-02T07:30:15.151Z,42.35
2024-03-02T07:32:42.881Z,42.26
2024-03-02T07:35:09.507Z,42.40
2024-03-02T07:37:35.990Z,42.12
2024-03-02T07:40:02.620Z,42.19
2024-03-02T07:42:29.127Z,42.29
2024-03-02T07:44:55.619Z,42.31
2024-03-02T07:47:22.057Z,42.44
2024-03-02T07:49:48.484Z,42.14
2024-03-02T07:52:14.927Z,42.22
2024-03-02T07:54:41.417Z,42.25
2024-03-02T07:57:07.904Z,42.32
2024-03-02T07:59:34.405Z,42.24
2024-03-02T08:02:01.792Z,42.46
2024-03-02T08:04:28.320Z,42.09
2024-03-02T08:06:55.959Z,42.49
2024-03-02T08:09:22.554Z,42.39
2024-03-02T08:11:49.107Z,42.16
2024-03-02T08:14:15.594Z,42.41
2024-03-02T08:16:42.523Z,42.49
2024-03-02T08:19:10.135Z,42.25
2024-03-02T08:21:36.915Z,42.12
2024-03-02T08:24:03.974Z,42.36
2024-03-02T08:26:32.580Z,42.41
2024-03-02T08:29:00.163Z,42.63
2024-03-02T08:31:26.635Z,42.75
2024-03-02T08:33:53.212Z,42.50
2024-03-02T08:36:20.775Z,42.35
2024-03-02T08:38:47.318Z,42.48
2024-03-02T08:41:14.822Z,42.53
2024-03-02T08:43:43.253Z,42.42
2024-03-02T08:46:09.852Z,42.31
2024-03-02T08:48:36.337Z,42.59
2024-03-02T08:51:05.649Z,42.55
2024-03-02T08:53:32.094Z,42.54
2024-03-02T08:55:59.709Z,42.56
2024-03-02T08:58:27.461Z,42.49
2024-03-02T09:00:54.197Z,42.23
2024-03-02T09:03:20.851Z,42.23
2024-03-02T09:05:47.233Z,42.36
2024-03-02T09:08:13.658Z,42.15
2024-03-02T09:10:41.030Z,41.93
2024-03-02T09:13:07.671Z,41.96
2024-03-02T09:15:37.027Z,41.87
2024-03-02T09:18:04.295Z,41.89
2024-03-02T09:20:30.730Z,41.76
2024-03-02T09:22:57.692Z,41.86
2024-03-02T09:25:24.161Z,41.70
2024-03-02T09:27:50.583Z,41.79
2024-03-02T09:30:17.002Z,41.68
2024-03-02T09:32:44.404Z,41.83
2024-03-02T09:35:11.434Z,40.42
2024-03-02T09:37:37.815Z,40.03
2024-03-02T09:40:04.913Z,39.88
2024-03-02T09:42:31.704Z,39.21
2024-03-02T09:44:58.404Z,39.40
2024-03-02T09:47:25.043Z,38.96
2024-03-02T09:49:51.839Z,39.16
2024-03-02T09:52:18.448Z,39.27
2024-03-02T09:54:44.901Z,38.77
2024-03-02T09:57:11.427Z,38.36
2024-03-02T09:59:37.782Z,38.25
2024-03-02T10:02:08.101Z,38.37
2024-03-02T10:04:36.778Z,38.39
2024-03-02T10:07:19.196Z,38.47
2024-03-02T10:09:47.483Z,38.61
2024-03-02T10:12:15.897Z,38.56
2024-03-02T10:14:42.661Z,38.66
2024-03-02T10:17:11.099Z,38.57
2024-03-02T10:19:38.826Z,38.56
2024-03-02T10:22:07.156Z,38.69
2024-03-02T10:24:37.949Z,38.83
2024-03-02T10:27:17.766Z,38.72
2024-03-02T10:29:47.461Z,38.70
2024-03-02T10:32:14.247Z,38.69
2024-03-02T10:34:41.616Z,38.50
2024-03-02T10:37:08.679Z,38.85
2024-03-02T10:39:40.860Z,38.54
2024-03-02T10:42:08.223Z,38.40
2024-03-02T10:44:36.014Z,38.63
2024-03-02T10:47:05.047Z,38.48
2024-03-02T10:49:32.918Z,38.74
2024-03-02T10:52:00.047Z,38.54
2024-03-02T10:54:36.900Z,38.53
2024-03-02T10:57:06.404Z,38.50
2024-03-02T10:59:37.836Z,38.22
2024-03-02T11:02:06.381Z,38.48
2024-03-02T11:04:34.188Z,37.72
2024-03-02T11:07:06.290Z,37.83
2024-03-02T11:09:36.228Z,36.63
2024-03-02T11:12:24.038Z,35.99
2024-03-02T11:14:53.123Z,36.17
2024-03-02T11:17:20.250Z,37.27
2024-03-02T11:19:48.464Z,37.18
2024-03-02T11:22:16.624Z,37.31
2024-03-02T11:24:53.937Z,37.18
2024-03-02T11:27:49.931Z,37.35
2024-03-02T11:30:35.647Z,37.57
2024-03-02T11:33:12.123Z,37.36
2024-03-02T11:35:52.431Z,37.39
2024-03-02T11:38:20.068Z,37.48
2024-03-02T11:40:46.506Z,37.44
2024-03-02T11:43:13.322Z,37.62
2024-03-02T11:45:45.264Z,37.64
2024-03-02T11:48:15.325Z,37.87
2024-03-02T11:50:50.600Z,38.14
2024-03-02T11:53:18.117Z,38.14
2024-03-02T11:55:47.596Z,38.08
2024-03-02T11:58:14.622Z,38.42
2024-03-02T12:00:41.193Z,38.10
2024-03-02T12:03:09.687Z,38.32
2024-03-02T12:05:37.170Z,38.10
2024-03-02T12:08:06.077Z,38.25
2024-03-02T12:10:33.567Z,37.79
2024-03-02T12:13:08.482Z,37.50
2024-03-02T12:15:38.069Z,36.67
2024-03-02T12:18:05.540Z,36.64
2024-03-02T12:20:33.304Z,37.16
2024-03-02T12:23:01.785Z,37.25
2024-03-02T12:25:28.719Z,36.94
2024-03-02T12:27:56.968Z,36.88
2024-03-02T12:30:24.437Z,36.54
2024-03-02T12:32:51.382Z,36.20
2024-03-02T12:35:19.721Z,35.47
2024-03-02T12:37:50.689Z,34.36
2024-03-02T12:40:19.454Z,34.62
2024-03-02T12:42:46.869Z,33.70
2024-03-02T12:45:14.504Z,32.95
2024-03-02T12:47:45.532Z,32.36
2024-03-02T12:50:12.078Z,32.70
2024-03-02T12:52:38.684Z,33.26
2024-03-02T12:55:06.687Z,33.08
2024-03-02T12:57:35.278Z,33.67
2024-03-02T13:00:15.490Z,33.84
2024-03-02T13:02:43.147Z,37.00
2024-03-02T13:05:12.851Z,35.21
2024-03-02T13:07:39.752Z,35.43
2024-03-02T13:10:08.847Z,34.97
2024-03-02T13:12:36.855Z,34.83
2024-03-02T13:15:04.876Z,34.87
2024-03-02T13:17:36.958Z,35.10
2024-03-02T13:20:11.914Z,34.82
2024-03-02T13:22:38.630Z,34.91
2024-03-02T13:25:05.973Z,34.88
2024-03-02T13:27:33.433Z,34.86
2024-03-02T13:30:00.136Z,35.05
2024-03-02T13:32:27.114Z,34.29
2024-03-02T13:34:53.618Z,35.46
2024-03-02T13:37:23.176Z,34.58
2024-03-02T13:39:50.091Z,34.88
2024-03-02T13:42:17.497Z,33.41
2024-03-02T13:44:49.219Z,35.21
2024-03-02T13:47:15.872Z,34.89
2024-03-02T13:49:46.796Z,35.46
2024-03-02T13:52:17.621Z,34.86
2024-03-02T13:54:46.073Z,35.38
2024-03-02T13:57:13.263Z,35.17
2024-03-02T13:59:40.135Z,35.43
2024-03-02T14:02:07.398Z,35.19
2024-03-02T14:04:34.988Z,35.41
2024-03-02T14:07:02.855Z,35.73
2024-03-02T14:09:29.823Z,35.26
2024-03-02T14:11:57.030Z,35.63
2024-03-02T14:14:24.163Z,35.59
2024-03-02T14:16:50.878Z,35.59
2024-03-02T14:19:17.498Z,35.78
2024-03-02T14:21:44.102Z,35.63
2024-03-02T14:24:10.755Z,35.70
2024-03-02T14:26:37.862Z,35.76
2024-03-02T14:29:04.912Z,35.69
2024-03-02T14:31:35.095Z,35.67
2024-03-02T14:34:01.736Z,36.02
2024-03-02T14:36:29.449Z,35.87
2024-03-02T14:38:56.521Z,35.85
2024-03-02T14:41:25.010Z,35.91
2024-03-02T14:43:51.815Z,36.12
2024-03-02T14:46:18.769Z,36.02
2024-03-02T14:48:47.101Z,36.26
2024-03-02T14:51:14.582Z,36.21
2024-03-02T14:53:41.370Z,36.30
2024-03-02T14:56:08.105Z,36.23
2024-03-02T14:58:36.218Z,36.36
2024-03-02T15:01:03.064Z,36.35
2024-03-02T15:03:30.190Z,36.49
2024-03-02T15:05:57.843Z,36.29
2024-03-02T15:08:24.394Z,36.30
2024-03-02T15:10:50.960Z,36.36
2024-03-02T15:13:17.630Z,36.39
2024-03-02T15:15:44.203Z,36.42
2024-03-02T15:18:10.713Z,36.59
2024-03-02T15:20:37.271Z,36.62
2024-03-02T15:23:04.307Z,36.94
2024-03-02T15:25:30.807Z,36.83
2024-03-02T15:27:57.468Z,37.01
2024-03-02T15:30:24.078Z,37.21
2024-03-02T15:32:50.636Z,37.21
2024-03-02T15:35:17.032Z,37.34
2024-03-02T15:37:43.449Z,37.21
2024-03-02T15:40:10.575Z,37.47
2024-03-02T15:42:37.293Z,37.46
2024-03-02T15:45:04.121Z,37.48
2024-03-02T15:47:30.602Z,37.42
2024-03-02T15:49:57.130Z,37.58
2024-03-02T15:52:23.778Z,37.56
2024-03-02T15:54:53.082Z,37.57
2024-03-02T15:57:20.713Z,37.88
2024-03-02T15:59:47.186Z,37.95
2024-03-02T16:02:15.383Z,37.70
2024-03-02T16:04:41.804Z,37.77
2024-03-02T16:07:10.766Z,37.86
2024-03-02T16:09:37.300Z,37.97
2024-03-02T16:12:04.220Z,37.86
2024-03-02T16:14:30.785Z,38.13
2024-03-02T16:16:57.173Z,38.14
2024-03-02T16:19:29.893Z,37.91
2024-03-02T16:21:59.744Z,38.22
2024-03-02T16:24:26.380Z,38.04
2024-03-02T16:26:52.915Z,38.21
2024-03-02T16:29:19.375Z,38.36
2024-03-02T16:31:45.853Z,38.43
2024-03-02T16:34:12.883Z,38.46
2024-03-02T16:36:41.360Z,38.31
2024-03-02T16:39:09.596Z,38.36
2024-03-02T16:41:36.145Z,38.51
2024-03-02T16:44:07.055Z,38.59
2024-03-02T16:46:34.104Z,38.45
2024-03-02T16:49:00.653Z,38.75
2024-03-02T16:51:27.301Z,38.82
2024-03-02T16:53:53.740Z,38.80
2024-03-02T16:56:20.183Z,38.67
2024-03-02T16:58:46.644Z,38.92
2024-03-02T17:01:13.107Z,39.01
2024-03-02T17:03:41.644Z,38.88
2024-03-02T17:06:08.084Z,38.90
2024-03-02T17:08:35.503Z,38.81
2024-03-02T17:11:01.935Z,38.99
2024-03-02T17:13:28.400Z,38.95
2024-03-02T17:15:54.878Z,39.07
2024-03-02T17:18:21.349Z,39.15
2024-03-02T17:20:47.775Z,39.36
2024-03-02T17:23:14.169Z,39.24
2024-03-02T17:25:40.735Z,39.19
2024-03-02T17:28:21.150Z,39.38
2024-03-02T17:30:47.617Z,39.58
2024-03-02T17:33:14.290Z,39.67
2024-03-02T17:35:40.752Z,39.78
2024-03-02T17:38:07.402Z,39.92
2024-03-02T17:40:33.808Z,40.04
2024-03-02T17:43:00.217Z,40.13
2024-03-02T17:45:26.649Z,40.36
2024-03-02T17:47:53.030Z,40.41
2024-03-02T17:50:19.507Z,40.58
2024-03-02T17:52:45.942Z,40.82
2024-03-02T17:55:12.408Z,41.19
2024-03-02T17:57:38.866Z,41.13
2024-03-02T18:00:06.295Z,41.32
2024-03-02T18:02:34.524Z,41.57
2024-03-02T18:05:00.935Z,41.68
2024-03-02T18:07:27.368Z,41.89
2024-03-02T18:09:53.876Z,42.12
2024-03-02T18:12:20.534Z,42.35
2024-03-02T18:14:46.943Z,42.18
2024-03-02T18:17:13.598Z,42.82
2024-03-02T18:19:40.187Z,42.93
2024-03-02T18:22:06.828Z,42.74
2024-03-02T18:24:36.509Z,42.58
2024-03-02T18:27:04.509Z,42.85
2024-03-02T18:29:30.887Z,42.88
2024-03-02T18:31:58.789Z,43.31
2024-03-02T18:34:25.288Z,42.98
2024-03-02T18:36:52.056Z,42.99
2024-03-02T18:39:19.049Z,43.14
2024-03-02T18:41:45.686Z,43.01
2024-03-02T18:44:12.155Z,42.97
2024-03-02T18:46:38.637Z,43.28
2024-03-02T18:49:05.202Z,43.17
2024-03-02T18:51:31.598Z,43.11
2024-03-02T18:53:58.048Z,42.92
2024-03-02T18:56:24.549Z,42.97
2024-03-02T18:58:51.037Z,42.95
2024-03-02T19:01:17.640Z,43.02
2024-03-02T19:03:44.228Z,43.12
2024-03-02T19:06:17.116Z,43.93
2024-03-02T19:08:43.722Z,43.87
2024-03-02T19:11:16.986Z,43.88
2024-03-02T19:13:44.453Z,43.92
2024-03-02T19:16:12.894Z,43.93
2024-03-02T19:18:40.943Z,43.97
2024-03-02T19:21:07.659Z,43.83
2024-03-02T19:23:40.260Z,43.97
2024-03-02T19:26:12.525Z,43.75
2024-03-02T19:28:38.932Z,43.83
2024-03-02T19:31:05.351Z,43.58
2024-03-02T19:33:32.060Z,43.57
2024-03-02T19:35:58.458Z,43.56
2024-03-02T19:38:26.266Z,43.63
2024-03-02T19:40:52.889Z,43.36
2024-03-02T19:43:19.537Z,43.58
2024-03-02T19:45:46.090Z,43.68
2024-03-02T19:48:12.747Z,43.39
2024-03-02T19:50:40.935Z,43.48
2024-03-02T19:53:07.339Z,43.46
2024-03-02T19:55:33.921Z,43.41
2024-03-02T19:58:00.351Z,43.50
2024-03-02T20:00:26.859Z,43.45
2024-03-02T20:02:53.403Z,43.12
2024-03-02T20:05:19.876Z,43.09
2024-03-02T20:07:46.705Z,43.13
2024-03-02T20:10:14.126Z,43.29
2024-03-02T20:12:40.846Z,43.09
2024-03-02T20:15:07.918Z,43.16
2024-03-02T20:17:34.413Z,43.09
2024-03-02T20:20:00.823Z,43.31
2024-03-02T20:22:27.245Z,43.33
2024-03-02T20:24:53.766Z,43.29
2024-03-02T20:27:21.299Z,43.22
2024-03-02T20:29:48.612Z,43.33
2024-03-02T20:32:15.095Z,43.41
2024-03-02T20:34:41.493Z,43.31
2024-03-02T20:37:07.994Z,43.25
2024-03-02T20:39:34.505Z,43.47
2024-03-02T20:42:01.040Z,43.16
2024-03-02T20:44:27.479Z,43.09
2024-03-02T20:46:54.777Z,43.02
2024-03-02T20:49:21.282Z,43.07
2024-03-02T20:51:47.927Z,43.30
2024-03-02T20:54:14.374Z,43.55
2024-03-02T20:56:43.490Z,43.13
2024-03-02T20:59:10.011Z,43.39
2024-03-02T21:01:36.899Z,43.17
2024-03-02T21:04:03.947Z,43.22
2024-03-02T21:06:30.620Z,43.17
2024-03-02T21:08:57.074Z,43.06
2024-03-02T21:11:23.564Z,43.08
2024-03-02T21:13:50.490Z,43.28
2024-03-02T21:16:17.826Z,43.31
2024-03-02T21:18:44.430Z,42.94
2024-03-02T21:21:13.925Z,42.86
2024-03-02T21:23:40.655Z,42.96
2024-03-02T21:26:07.172Z,42.91
2024-03-02T21:28:33.626Z,42.92
2024-03-02T21:31:00.078Z,42.89
2024-03-02T21:33:29.726Z,43.04
2024-03-02T21:35:56.210Z,42.89
2024-03-02T21:38:22.840Z,43.07
2024-03-02T21:40:50.044Z,42.78
2024-03-02T21:43:17.167Z,42.78
2024-03-02T21:45:43.812Z,42.96
2024-03-02T21:48:10.296Z,42.62
2024-03-02T21:50:36.840Z,42.72
2024-03-02T21:53:04.698Z,42.91
2024-03-02T21:55:31.136Z,42.92
2024-03-02T21:57:57.632Z,42.81
2024-03-02T22:00:25.130Z,42.87
2024-03-02T22:02:51.533Z,42.96
2024-03-02T22:05:18.102Z,43.01
2024-03-02T22:07:44.529Z,42.68
2024-03-02T22:10:11.045Z,43.07
2024-03-02T22:12:38.788Z,43.06
2024-03-02T22:15:05.589Z,43.07
2024-03-02T22:17:32.350Z,42.83
2024-03-02T22:19:58.868Z,43.16
2024-03-02T22:22:25.327Z,42.80
2024-03-02T22:24:51.853Z,42.89
2024-03-02T22:27:18.314Z,43.25
2024-03-02T22:29:45.036Z,43.20
2024-03-02T22:32:11.449Z,43.07
2024-03-02T22:34:37.909Z,42.79
2024-03-02T22:37:04.670Z,43.09
2024-03-02T22:39:31.149Z,42.74
2024-03-02T22:41:57.631Z,43.22
2024-03-02T22:44:24.073Z,43.11
2024-03-02T22:46:50.502Z,43.04
2024-03-02T22:49:17.517Z,43.06
2024-03-02T22:51:43.984Z,43.23
2024-03-02T22:54:10.468Z,42.96
2024-03-02T22:56:36.888Z,43.05
2024-03-02T22:59:03.550Z,42.86
2024-03-02T23:01:30.097Z,43.19
2024-03-02T23:03:56.610Z,43.17
2024-03-02T23:06:24.070Z,43.04
2024-03-02T23:08:50.532Z,43.01
2024-03-02T23:11:17.046Z,43.15
2024-03-02T23:13:43.526Z,43.03
2024-03-02T23:16:09.977Z,43.16
2024-03-02T23:18:36.522Z,43.32
2024-03-02T23:21:03.075Z,42.89
2024-03-02T23:23:29.481Z,43.39
2024-03-02T23:25:55.934Z,43.41
2024-03-02T23:28:22.468Z,43.03
2024-03-02T23:30:49.003Z,43.25
2024-03-02T23:33:15.690Z,43.10
2024-03-02T23:35:42.813Z,43.33
2024-03-02T23:38:09.462Z,43.16
2024-03-02T23:40:54.259Z,43.01
2024-03-02T23:43:20.799Z,43.35
2024-03-02T23:45:47.287Z,43.37
2024-03-02T23:48:13.824Z,43.41
2024-03-02T23:50:40.267Z,43.27
2024-03-02T23:53:06.710Z,43.16
2024-03-02T23:55:46.322Z,43.25
2024-03-02T23:58:18.329Z,43.26
